Colville, WA

7:14 PM PST on March 02, 2015 (GMT -0800)
Sandpoint | Change Station
CLOSE
Current Station
Airport
Location: Sandpoint,
Elevation: 2126 ft
Nearby Weather Stations

Elev 2126 ft 48.30 °N, 116.56 °W | Updated 19 minutes ago

Overcast
Overcast
32 °F
Feels Like 20 °F
N
20
Wind Variable Wind from NNE
Gusts 25 mph

Today
High -- | Low -- °F
--% Chance of Precip.
Yesterday
High -- | Low -- °F
Precip. -- in
6:31 AM 5:36 PM
Waxing Gibbous, 94% visible
Pressure 29.98 in
Visibility 10.0 miles
Clouds Scattered Clouds 9000 ft
Windchill 20 °F
Dew Point 23 °F
Humidity 69%
Rainfall 0.00 in
Snow Depth Not available.
UV 0 out of 12
Pollen 3.60 out of 12
Air Quality Not available.
Flu Activity Not available.
METAR KSZT 030255Z AUTO 02017G22KT 10SM SCT090 00/M05 A2998 RMK AO2

More Conditions Fewer Conditions

Pressure 29.98 in
Visibility 10.0 miles
Clouds Scattered Clouds 9000 ft
Windchill 20 °F
Dew Point 23 °F
Humidity 69%
Rainfall 0.00 in
Snow Depth Not available.
UV 0 out of 12
Pollen 3.60 out of 12
Air Quality Not available.
Flu Activity Not available.
METAR KSZT 030255Z AUTO 02017G22KT 10SM SCT090 00/M05 A2998 RMK AO2

More Conditions Fewer Conditions

Nowcast | as of 5:23 PM PST on March 2, 2015

Scattered snow showers over northeast Washington and north Idaho are moving south at 25 mph. These showers will produce brief but locally heavy snow rates. Locations to be impacted include Priest River...Usk...Colville...Coolin...Metaline Falls...and Chewelah...Deer Park...and the Spokane and Airway Heights area. Most of the snow will initially melt on the nearby highways...including 2 and 395...but some may accumulate under especially heavy showers. Snow will also accumulate on lesser traveled roads and sidewalks. Any lingering partially melted accumulations may refreeze tonight and cause slick conditions.

×

10-Day Weather Forecast

Almanac

Astronomy

Mar. 02, 2015 Rise Set
Actual Time
Civil Twilight
Nautical Twilight
Astronomical Twilight
Moon
Length of Visible Light
Length of Day
Tomorrow will be .
, % of the Moon is Illuminated

Today's Extremes

State Highs State Lows

Community

WunderPhotos

Upload Photos

1,802,057 photos uploaded!

WunderBlogs® & News

Nearby

Air Quality

  Air Quality AQ Index Pollutant
Not available.

Snow Depth

Station Depth Elevation

Earthquake Activity

City Distance Mag. Time & Date
Minimum magnitude displayed is 2.5.

Coastal Water Temperatures

Place Temperature

Nearby Weather Stations